Time;durP1;ratioP1;P1;durP2;ratioP2;P2;SDS_P1;SDS_P2;PMS_P1;PMS_P2;Temp;Humidity;BMP_temperature;BMP_pressure;BME280_temperature;BME280_humidity;BME280_pressure;Samples;Min_cycle;Max_cycle;Signal;HPM_P1;HPM_P2
2021/04/20 00:00:50;;;;;;;12.98;9.52;;;;;;;;;;5050703;28;20094;-79
2021/04/20 00:03:16;;;;;;;13.88;9.93;;;;;;;;;;5042702;28;20112;-79
2021/04/20 00:05:41;;;;;;;12.65;9.88;;;;;;;;;;5050236;28;20025;-79
2021/04/20 00:08:07;;;;;;;11.63;9.50;;;;;;;;;;5052935;28;20029;-79
2021/04/20 00:10:33;;;;;;;11.25;9.70;;;;;;;;;;5052731;28;20469;-79
2021/04/20 00:12:58;;;;;;;12.15;9.82;;;;;;;;;;5040040;28;20040;-79
2021/04/20 00:15:26;;;;;;;12.55;9.95;;;;;;;;;;5057933;28;20029;-79
2021/04/20 00:17:54;;;;;;;12.43;10.63;;;;;;;;;;5049784;28;20032;-79
2021/04/20 00:20:20;;;;;;;12.23;10.80;;;;;;;;;;5032373;28;20444;-79
2021/04/20 00:22:45;;;;;;;12.25;10.13;;;;;;;;;;5051800;28;20024;-79
2021/04/20 00:25:11;;;;;;;13.07;10.95;;;;;;;;;;5050552;28;20036;-79
2021/04/20 00:27:37;;;;;;;13.52;10.77;;;;;;;;;;5049131;28;20063;-78
2021/04/20 00:30:07;;;;;;;14.88;11.18;;;;;;;;;;5052758;28;20021;-78
2021/04/20 00:32:32;;;;;;;11.90;9.98;;;;;;;;;;5059003;28;20021;-79
2021/04/20 00:34:58;;;;;;;12.70;10.55;;;;;;;;;;5037940;28;20063;-78
2021/04/20 00:37:23;;;;;;;11.45;10.25;;;;;;;;;;5014496;28;20021;-78
2021/04/20 00:39:49;;;;;;;11.98;10.20;;;;;;;;;;5033729;28;20044;-80
2021/04/20 00:42:14;;;;;;;12.38;9.52;;;;;;;;;;5034145;28;20041;-79
2021/04/20 00:44:40;;;;;;;11.52;9.93;;;;;;;;;;5015235;28;20075;-80
2021/04/20 00:47:05;;;;;;;13.93;10.20;;;;;;;;;;5022655;28;20025;-79
2021/04/20 00:49:31;;;;;;;12.23;9.70;;;;;;;;;;5052333;28;20100;-79
2021/04/20 00:51:57;;;;;;;12.35;9.90;;;;;;;;;;5052360;28;20025;-78
2021/04/20 00:54:24;;;;;;;10.93;9.73;;;;;;;;;;5052048;28;20036;-79
2021/04/20 00:56:50;;;;;;;11.77;10.35;;;;;;;;;;5052644;28;20017;-79
2021/04/20 00:59:16;;;;;;;11.13;9.73;;;;;;;;;;5035366;28;20025;-80
2021/04/20 01:01:42;;;;;;;11.55;10.07;;;;;;;;;;5032135;28;20017;-79
2021/04/20 01:04:16;;;;;;;12.18;10.30;;;;;;;;;;5045333;28;20039;-79
2021/04/20 01:06:43;;;;;;;11.90;10.68;;;;;;;;;;5071760;28;20016;-79
2021/04/20 01:09:10;;;;;;;13.18;11.02;;;;;;;;;;5052713;28;20020;-78
2021/04/20 01:11:37;;;;;;;12.98;10.85;;;;;;;;;;5051607;28;20024;-78
2021/04/20 01:14:03;;;;;;;12.68;11.30;;;;;;;;;;5052181;28;20104;-79
2021/04/20 01:16:29;;;;;;;11.30;9.93;;;;;;;;;;5051742;28;20021;-79
2021/04/20 01:18:55;;;;;;;14.27;10.73;;;;;;;;;;5033781;28;20032;-79
2021/04/20 01:21:21;;;;;;;14.00;11.02;;;;;;;;;;5051225;28;20032;-79
2021/04/20 01:23:52;;;;;;;12.77;10.60;;;;;;;;;;5059434;28;20199;-79
2021/04/20 01:26:19;;;;;;;14.10;11.50;;;;;;;;;;5034205;28;20021;-79
2021/04/20 01:28:46;;;;;;;14.75;11.65;;;;;;;;;;5051992;28;20017;-79
2021/04/20 01:31:18;;;;;;;12.13;10.35;;;;;;;;;;5052477;28;20021;-79
2021/04/20 01:33:44;;;;;;;13.55;11.25;;;;;;;;;;5051560;28;20025;-79
2021/04/20 01:36:12;;;;;;;11.95;10.07;;;;;;;;;;5052177;28;20108;-79
2021/04/20 01:38:42;;;;;;;15.38;12.40;;;;;;;;;;5056571;28;20025;-79
2021/04/20 01:41:07;;;;;;;12.57;11.27;;;;;;;;;;5038560;28;20029;-79
2021/04/20 01:43:34;;;;;;;13.18;11.25;;;;;;;;;;5049753;28;20071;-79
2021/04/20 01:45:59;;;;;;;13.30;11.60;;;;;;;;;;5057490;28;20207;-79
2021/04/20 01:48:25;;;;;;;14.18;11.60;;;;;;;;;;5056668;28;20078;-79
2021/04/20 01:50:51;;;;;;;14.45;12.00;;;;;;;;;;5056171;28;20052;-79
2021/04/20 01:53:17;;;;;;;13.45;11.65;;;;;;;;;;5056593;28;20025;-79
2021/04/20 01:55:43;;;;;;;12.40;11.05;;;;;;;;;;5056108;28;20057;-79
2021/04/20 01:58:09;;;;;;;12.93;11.32;;;;;;;;;;5047072;28;20025;-79
2021/04/20 02:00:37;;;;;;;13.23;11.82;;;;;;;;;;5018131;28;20091;-79
2021/04/20 02:03:04;;;;;;;14.95;12.07;;;;;;;;;;5018135;28;20036;-79
2021/04/20 02:05:29;;;;;;;15.52;12.20;;;;;;;;;;5018473;28;20492;-80
2021/04/20 02:07:55;;;;;;;14.30;11.68;;;;;;;;;;5035643;28;20025;-79
2021/04/20 02:10:20;;;;;;;14.40;12.25;;;;;;;;;;5017795;28;20029;-78
2021/04/20 02:12:46;;;;;;;12.60;11.30;;;;;;;;;;5047635;28;20035;-79
2021/04/20 02:15:14;;;;;;;14.52;11.85;;;;;;;;;;5075426;28;20388;-79
2021/04/20 02:17:42;;;;;;;16.60;12.45;;;;;;;;;;5074746;28;20036;-79
2021/04/20 02:20:10;;;;;;;13.40;11.93;;;;;;;;;;5076113;28;20099;-79
2021/04/20 02:22:37;;;;;;;15.20;12.10;;;;;;;;;;5075531;28;20043;-79
2021/04/20 02:25:06;;;;;;;13.38;11.98;;;;;;;;;;5075957;28;20449;-79
2021/04/20 02:27:33;;;;;;;14.38;12.48;;;;;;;;;;5075518;28;20107;-80
2021/04/20 02:29:59;;;;;;;15.27;12.35;;;;;;;;;;5056247;28;20369;-79
2021/04/20 02:32:24;;;;;;;14.95;12.65;;;;;;;;;;5058841;28;20031;-79
2021/04/20 02:34:50;;;;;;;15.70;12.43;;;;;;;;;;5055488;28;20477;-79
2021/04/20 02:37:17;;;;;;;15.40;12.60;;;;;;;;;;5055429;28;20120;-78
2021/04/20 02:39:43;;;;;;;16.10;12.68;;;;;;;;;;5054760;28;20029;-79
2021/04/20 02:42:09;;;;;;;17.42;12.55;;;;;;;;;;5054857;28;20106;-79
2021/04/20 02:44:34;;;;;;;16.17;13.00;;;;;;;;;;5053992;28;20057;-79
2021/04/20 02:47:01;;;;;;;13.88;12.43;;;;;;;;;;5037631;28;20037;-79
2021/04/20 02:49:26;;;;;;;15.95;13.00;;;;;;;;;;5055944;28;20028;-79
2021/04/20 02:51:52;;;;;;;15.82;12.50;;;;;;;;;;5055376;28;20033;-79
2021/04/20 02:54:17;;;;;;;14.90;13.30;;;;;;;;;;5055590;28;20051;-79
2021/04/20 02:56:43;;;;;;;13.93;12.25;;;;;;;;;;5055637;28;20024;-79
2021/04/20 02:59:10;;;;;;;14.75;12.55;;;;;;;;;;5055437;28;20033;-79
2021/04/20 03:01:38;;;;;;;15.93;12.95;;;;;;;;;;5053340;28;20044;-80
2021/04/20 03:04:04;;;;;;;14.38;12.88;;;;;;;;;;5054987;28;20024;-79
2021/04/20 03:06:30;;;;;;;15.60;12.65;;;;;;;;;;5054225;28;20485;-79
2021/04/20 03:08:56;;;;;;;14.38;12.88;;;;;;;;;;5054505;28;20025;-79
2021/04/20 03:11:29;;;;;;;15.45;12.70;;;;;;;;;;5054443;28;20512;-79
2021/04/20 03:13:58;;;;;;;13.98;12.48;;;;;;;;;;5054209;28;20107;-78
2021/04/20 03:16:24;;;;;;;14.95;13.15;;;;;;;;;;5036243;28;20024;-79
2021/04/20 03:18:50;;;;;;;14.70;13.02;;;;;;;;;;5048914;28;20117;-79
2021/04/20 03:21:16;;;;;;;15.32;13.00;;;;;;;;;;5034378;28;20029;-79
2021/04/20 03:23:43;;;;;;;14.52;12.70;;;;;;;;;;5028959;28;20025;-79
2021/04/20 03:26:36;;;;;;;14.52;12.48;;;;;;;;;;5053769;28;20036;-79
2021/04/20 03:29:04;;;;;;;15.32;12.93;;;;;;;;;;5026647;28;20107;-79
2021/04/20 03:31:29;;;;;;;14.80;13.02;;;;;;;;;;5034448;28;20029;-79
2021/04/20 03:34:01;;;;;;;14.80;13.07;;;;;;;;;;5034174;28;20032;-79
2021/04/20 03:36:33;;;;;;;14.35;12.85;;;;;;;;;;5040262;28;20108;-79
2021/04/20 03:39:03;;;;;;;16.08;13.45;;;;;;;;;;5053681;28;20063;-79
2021/04/20 03:41:34;;;;;;;19.13;13.35;;;;;;;;;;5035870;28;20040;-79
2021/04/20 03:44:00;;;;;;;16.03;13.50;;;;;;;;;;5052949;28;20063;-79
2021/04/20 03:46:32;;;;;;;14.88;13.07;;;;;;;;;;5054032;28;20266;-79
2021/04/20 03:49:12;;;;;;;16.73;13.27;;;;;;;;;;5053573;28;20032;-79
2021/04/20 03:51:42;;;;;;;15.57;13.77;;;;;;;;;;5053503;28;20036;-79
2021/04/20 03:54:10;;;;;;;16.27;14.15;;;;;;;;;;5058029;28;20025;-79
2021/04/20 03:56:37;;;;;;;15.95;13.80;;;;;;;;;;5054731;28;20028;-79
2021/04/20 03:59:05;;;;;;;19.00;14.23;;;;;;;;;;5039548;28;20068;-79
2021/04/20 04:01:36;;;;;;;15.82;13.82;;;;;;;;;;5033246;28;20029;-79
2021/04/20 04:04:02;;;;;;;14.82;13.27;;;;;;;;;;5033106;28;20112;-78
2021/04/20 04:06:29;;;;;;;15.55;13.18;;;;;;;;;;5033377;28;20040;-79
2021/04/20 04:08:54;;;;;;;16.17;13.45;;;;;;;;;;5033008;28;20047;-79
2021/04/20 04:11:23;;;;;;;15.43;13.63;;;;;;;;;;5045026;28;20037;-79
2021/04/20 04:13:49;;;;;;;16.13;13.38;;;;;;;;;;5051936;28;20114;-79
2021/04/20 04:16:18;;;;;;;16.60;13.43;;;;;;;;;;5052819;28;20524;-79
2021/04/20 04:18:47;;;;;;;18.08;14.38;;;;;;;;;;5052926;28;20099;-79
2021/04/20 04:21:18;;;;;;;17.08;14.05;;;;;;;;;;5053236;28;20652;-78
2021/04/20 04:23:47;;;;;;;17.65;13.52;;;;;;;;;;5052966;28;20028;-79
2021/04/20 04:26:21;;;;;;;15.23;13.63;;;;;;;;;;5035097;28;20124;-79
2021/04/20 04:28:51;;;;;;;16.35;13.73;;;;;;;;;;5061493;28;20029;-79
2021/04/20 04:31:18;;;;;;;16.73;14.33;;;;;;;;;;5073654;28;20028;-79
2021/04/20 04:33:44;;;;;;;16.77;14.63;;;;;;;;;;5073529;28;20267;-79
2021/04/20 04:36:10;;;;;;;18.85;14.90;;;;;;;;;;5072537;28;20054;-78
2021/04/20 04:38:38;;;;;;;16.38;14.05;;;;;;;;;;5072519;28;20033;-79
2021/04/20 04:41:04;;;;;;;16.48;13.75;;;;;;;;;;5072212;28;20048;-79
2021/04/20 04:43:29;;;;;;;17.90;14.55;;;;;;;;;;5071864;28;20049;-78
2021/04/20 04:45:57;;;;;;;17.27;14.68;;;;;;;;;;5055409;28;20397;-79
2021/04/20 04:48:23;;;;;;;15.60;14.00;;;;;;;;;;5052617;28;20453;-79
2021/04/20 04:50:50;;;;;;;17.58;14.55;;;;;;;;;;5052240;28;20081;-79
2021/04/20 04:53:16;;;;;;;20.02;14.80;;;;;;;;;;5052487;28;20032;-79
2021/04/20 04:55:41;;;;;;;17.20;14.40;;;;;;;;;;5052662;28;20032;-79
2021/04/20 04:58:08;;;;;;;15.77;14.13;;;;;;;;;;5044702;28;20530;-79
2021/04/20 05:00:34;;;;;;;18.42;14.88;;;;;;;;;;5036655;28;20131;-79
2021/04/20 05:03:00;;;;;;;19.52;16.15;;;;;;;;;;5057779;28;20108;-79
2021/04/20 05:05:27;;;;;;;19.42;15.45;;;;;;;;;;5052468;28;20049;-79
2021/04/20 05:07:59;;;;;;;17.65;15.73;;;;;;;;;;5034333;28;20132;-79
2021/04/20 05:10:25;;;;;;;17.17;15.30;;;;;;;;;;5052537;28;20435;-79
2021/04/20 05:12:52;;;;;;;18.88;15.43;;;;;;;;;;5052507;28;20032;-79
2021/04/20 05:15:17;;;;;;;17.98;14.30;;;;;;;;;;5034765;28;20028;-80
2021/04/20 05:17:43;;;;;;;18.10;15.57;;;;;;;;;;5053530;28;20029;-80
2021/04/20 05:20:16;;;;;;;17.77;15.40;;;;;;;;;;5052892;28;20025;-79
2021/04/20 05:22:42;;;;;;;18.90;15.43;;;;;;;;;;5052539;28;20029;-79
2021/04/20 05:25:08;;;;;;;20.90;16.02;;;;;;;;;;5051998;28;20036;-79
2021/04/20 05:27:34;;;;;;;20.45;16.00;;;;;;;;;;5052394;28;20101;-79
2021/04/20 05:30:00;;;;;;;20.25;16.10;;;;;;;;;;5045887;28;20025;-79
2021/04/20 05:32:25;;;;;;;21.80;16.52;;;;;;;;;;5033312;28;20037;-79
2021/04/20 05:34:51;;;;;;;18.67;15.68;;;;;;;;;;5050812;28;20037;-79
2021/04/20 05:37:49;;;;;;;22.10;15.48;;;;;;;;;;5035228;28;20025;-80
2021/04/20 05:40:17;;;;;;;22.60;17.00;;;;;;;;;;5010299;28;20064;-80
2021/04/20 05:42:43;;;;;;;22.73;16.50;;;;;;;;;;5004005;28;20133;-82
2021/04/20 05:45:11;;;;;;;20.85;15.95;;;;;;;;;;4999999;28;20030;-82
2021/04/20 05:47:40;;;;;;;21.25;15.90;;;;;;;;;;4998319;28;20046;-83
2021/04/20 05:50:07;;;;;;;22.00;15.75;;;;;;;;;;5003276;28;20031;-83
2021/04/20 05:52:37;;;;;;;24.90;16.77;;;;;;;;;;5004997;28;20031;-83
2021/04/20 05:55:05;;;;;;;24.40;16.67;;;;;;;;;;4993484;28;20034;-83
2021/04/20 05:57:31;;;;;;;21.15;16.15;;;;;;;;;;4998646;28;20057;-83
2021/04/20 05:59:58;;;;;;;20.98;16.10;;;;;;;;;;4997452;28;20035;-83
2021/04/20 06:02:30;;;;;;;21.85;16.05;;;;;;;;;;4992714;28;20046;-83
2021/04/20 06:05:09;;;;;;;22.55;16.17;;;;;;;;;;5007709;28;20034;-84
2021/04/20 06:07:35;;;;;;;19.50;16.33;;;;;;;;;;5001378;28;20057;-83
2021/04/20 06:10:05;;;;;;;20.08;16.65;;;;;;;;;;5006834;28;20139;-83
2021/04/20 06:12:31;;;;;;;23.05;17.67;;;;;;;;;;4997518;28;20093;-83
2021/04/20 06:14:56;;;;;;;23.38;17.17;;;;;;;;;;5006597;28;20042;-82
2021/04/20 06:17:22;;;;;;;24.52;17.67;;;;;;;;;;5028010;28;20474;-82
2021/04/20 06:19:47;;;;;;;21.38;16.35;;;;;;;;;;5024936;28;20028;-82
2021/04/20 06:22:16;;;;;;;20.17;16.90;;;;;;;;;;5026268;28;20025;-83
2021/04/20 06:24:43;;;;;;;21.83;16.02;;;;;;;;;;5012683;28;20094;-83
2021/04/20 06:27:09;;;;;;;18.92;16.42;;;;;;;;;;5013377;28;20030;-83
2021/04/20 06:29:36;;;;;;;25.42;17.20;;;;;;;;;;5013485;28;20098;-83
2021/04/20 06:32:02;;;;;;;18.95;16.15;;;;;;;;;;5024223;28;20026;-82
2021/04/20 06:34:28;;;;;;;21.73;18.20;;;;;;;;;;5030887;28;20029;-84
2021/04/20 06:36:54;;;;;;;22.48;16.80;;;;;;;;;;5030027;28;20033;-82
2021/04/20 06:39:21;;;;;;;18.92;16.20;;;;;;;;;;5012790;28;20037;-82
2021/04/20 06:41:51;;;;;;;28.95;17.63;;;;;;;;;;5028250;28;20073;-82
2021/04/20 06:44:29;;;;;;;20.75;16.10;;;;;;;;;;5070732;28;20039;-83
2021/04/20 06:47:12;;;;;;;21.60;16.50;;;;;;;;;;5075470;28;20055;-83
2021/04/20 06:50:16;;;;;;;19.63;16.05;;;;;;;;;;5057667;28;20021;-83
2021/04/20 06:52:50;;;;;;;23.35;17.08;;;;;;;;;;4960342;29;20046;-83
2021/04/20 06:56:07;;;;;;;20.77;17.55;;;;;;;;;;4964342;29;20071;-83
2021/04/20 06:58:47;;;;;;;25.30;17.20;;;;;;;;;;4954218;29;20040;-83
2021/04/20 07:01:18;;;;;;;21.65;17.55;;;;;;;;;;4975800;29;20059;-84
2021/04/20 07:03:50;;;;;;;22.05;17.23;;;;;;;;;;4975683;29;20082;-83
2021/04/20 07:06:25;;;;;;;22.27;17.52;;;;;;;;;;4975011;29;20035;-82
2021/04/20 07:08:55;;;;;;;21.27;17.80;;;;;;;;;;4975487;29;20035;-82
2021/04/20 07:11:21;;;;;;;23.80;18.25;;;;;;;;;;4975100;29;20031;-83
2021/04/20 07:13:51;;;;;;;22.88;18.80;;;;;;;;;;4958325;29;20038;-83
2021/04/20 07:16:25;;;;;;;30.70;20.98;;;;;;;;;;4974935;29;20031;-83
2021/04/20 07:19:18;;;;;;;26.60;22.30;;;;;;;;;;4975736;29;20038;-84
2021/04/20 07:21:46;;;;;;;25.58;22.77;;;;;;;;;;4975214;29;20043;-82
2021/04/20 07:24:19;;;;;;;26.33;23.40;;;;;;;;;;4975347;29;20058;-82
2021/04/20 07:26:53;;;;;;;27.15;24.23;;;;;;;;;;4974598;28;20038;-84
2021/04/20 07:29:41;;;;;;;25.83;23.02;;;;;;;;;;5051460;28;20034;-83
2021/04/20 07:32:19;;;;;;;27.70;22.27;;;;;;;;;;5058134;28;20025;-83
2021/04/20 07:35:03;;;;;;;30.98;22.67;;;;;;;;;;5055263;28;20052;-83
2021/04/20 07:37:48;;;;;;;29.48;22.30;;;;;;;;;;5036220;28;20033;-83
2021/04/20 07:40:34;;;;;;;25.67;21.15;;;;;;;;;;5053538;28;20025;-82
2021/04/20 07:43:29;;;;;;;27.95;21.83;;;;;;;;;;5054501;28;20050;-83
2021/04/20 07:46:07;;;;;;;26.52;22.50;;;;;;;;;;5054187;28;20032;-83
2021/04/20 07:48:42;;;;;;;30.23;23.58;;;;;;;;;;5036681;28;20024;-83
2021/04/20 07:51:26;;;;;;;26.92;22.10;;;;;;;;;;5054617;28;20009;-83
2021/04/20 07:54:15;;;;;;;28.33;24.05;;;;;;;;;;5036772;28;20041;-82
2021/04/20 07:56:59;;;;;;;27.58;23.00;;;;;;;;;;5036090;28;20035;-82
2021/04/20 07:59:37;;;;;;;26.67;22.90;;;;;;;;;;5054065;28;20075;-83
2021/04/20 08:02:19;;;;;;;24.35;20.98;;;;;;;;;;5062355;28;20025;-83
2021/04/20 08:04:50;;;;;;;29.27;22.55;;;;;;;;;;5052920;28;20512;-82
2021/04/20 08:07:29;;;;;;;22.60;19.50;;;;;;;;;;5052898;28;20048;-83
2021/04/20 08:09:56;;;;;;;26.85;21.20;;;;;;;;;;5052906;28;20026;-82
2021/04/20 08:12:32;;;;;;;26.08;21.30;;;;;;;;;;5051882;28;20032;-82
2021/04/20 08:15:06;;;;;;;28.05;21.95;;;;;;;;;;5052525;28;20048;-83
2021/04/20 08:17:39;;;;;;;23.08;20.50;;;;;;;;;;5034916;28;20032;-83
2021/04/20 08:20:09;;;;;;;22.27;19.88;;;;;;;;;;5069888;28;20029;-82
2021/04/20 08:22:36;;;;;;;22.37;19.47;;;;;;;;;;5071988;28;20021;-83
2021/04/20 08:25:12;;;;;;;23.77;20.17;;;;;;;;;;5054495;28;20268;-83
2021/04/20 08:28:35;;;;;;;24.98;19.50;;;;;;;;;;5054365;28;20405;-83
2021/04/20 08:31:21;;;;;;;24.45;20.45;;;;;;;;;;4955594;29;20078;-82
2021/04/20 08:33:55;;;;;;;25.67;21.08;;;;;;;;;;4971112;29;20659;-83
2021/04/20 08:36:45;;;;;;;22.40;19.77;;;;;;;;;;4971471;29;20036;-82
2021/04/20 08:39:18;;;;;;;23.60;19.77;;;;;;;;;;4970850;29;20027;-82
2021/04/20 08:41:50;;;;;;;21.48;19.15;;;;;;;;;;4970979;28;20035;-80
2021/04/20 08:44:30;;;;;;;21.25;18.33;;;;;;;;;;4954653;29;20059;-83
2021/04/20 08:47:01;;;;;;;20.45;18.35;;;;;;;;;;4963383;29;20055;-83
2021/04/20 08:49:40;;;;;;;20.55;18.17;;;;;;;;;;4954442;29;20097;-82
2021/04/20 08:52:17;;;;;;;20.02;17.90;;;;;;;;;;4948945;29;20027;-81
2021/04/20 08:55:16;;;;;;;20.33;17.75;;;;;;;;;;4968251;29;20034;-81
2021/04/20 08:57:54;;;;;;;18.20;15.48;;;;;;;;;;4947364;29;20055;-82
2021/04/20 09:01:01;;;;;;;16.63;14.60;;;;;;;;;;4941372;29;20045;-83
2021/04/20 09:03:48;;;;;;;18.00;14.77;;;;;;;;;;5031744;28;20100;-82
2021/04/20 09:06:39;;;;;;;17.17;14.93;;;;;;;;;;5048772;28;20016;-82
2021/04/20 09:09:31;;;;;;;16.50;14.80;;;;;;;;;;5063612;28;20013;-82
2021/04/20 09:12:13;;;;;;;16.55;14.80;;;;;;;;;;5061333;28;20028;-82
2021/04/20 09:14:40;;;;;;;17.15;15.32;;;;;;;;;;5057686;28;20033;-82
2021/04/20 09:17:17;;;;;;;19.55;14.70;;;;;;;;;;5070168;28;20029;-83
2021/04/20 09:20:02;;;;;;;15.73;14.02;;;;;;;;;;5037557;28;20033;-82
2021/04/20 09:23:00;;;;;;;17.58;15.38;;;;;;;;;;5040130;28;20475;-83
2021/04/20 09:25:42;;;;;;;15.95;14.20;;;;;;;;;;5040189;28;20509;-82
2021/04/20 09:28:17;;;;;;;17.10;15.00;;;;;;;;;;5064128;28;20032;-82
2021/04/20 09:31:01;;;;;;;16.17;14.52;;;;;;;;;;5065238;28;21762;-82
2021/04/20 09:33:47;;;;;;;15.38;13.77;;;;;;;;;;5063516;28;20124;-82
2021/04/20 09:36:14;;;;;;;14.48;12.95;;;;;;;;;;5048114;28;20025;-82
2021/04/20 09:38:46;;;;;;;16.52;13.68;;;;;;;;;;5054644;28;20063;-83
2021/04/20 09:41:13;;;;;;;14.98;13.38;;;;;;;;;;5058200;28;20116;-83
2021/04/20 09:43:49;;;;;;;15.32;13.70;;;;;;;;;;5064966;28;20059;-83
2021/04/20 09:46:26;;;;;;;14.45;12.93;;;;;;;;;;5063918;28;20025;-82
2021/04/20 09:49:33;;;;;;;15.25;13.02;;;;;;;;;;5063985;28;20029;-82
2021/04/20 09:52:06;;;;;;;13.93;12.52;;;;;;;;;;5041143;28;20033;-82
2021/04/20 09:54:53;;;;;;;14.15;12.65;;;;;;;;;;5064054;28;20040;-83
2021/04/20 09:57:23;;;;;;;14.75;13.07;;;;;;;;;;5059801;28;20032;-82
2021/04/20 09:59:57;;;;;;;17.02;12.25;;;;;;;;;;5061226;28;20025;-82
2021/04/20 10:02:58;;;;;;;13.40;11.65;;;;;;;;;;5062199;28;20048;-82
2021/04/20 10:06:00;;;;;;;12.77;11.43;;;;;;;;;;4969942;28;20035;-82
2021/04/20 10:09:08;;;;;;;13.18;10.60;;;;;;;;;;4978741;28;20046;-83
2021/04/20 10:11:47;;;;;;;13.43;10.82;;;;;;;;;;4984831;28;20050;-82
2021/04/20 10:14:54;;;;;;;12.68;10.35;;;;;;;;;;4969088;28;20066;-82
2021/04/20 10:17:45;;;;;;;12.73;11.18;;;;;;;;;;4951441;29;20055;-82
2021/04/20 10:20:58;;;;;;;9.63;8.63;;;;;;;;;;4951514;29;20532;-82
2021/04/20 10:23:45;;;;;;;11.63;9.40;;;;;;;;;;4948891;29;20055;-83
2021/04/20 10:26:27;;;;;;;10.00;9.00;;;;;;;;;;4958841;29;20064;-83
2021/04/20 10:28:59;;;;;;;10.23;8.88;;;;;;;;;;4949670;29;20409;-83
2021/04/20 10:31:34;;;;;;;13.35;10.13;;;;;;;;;;4950438;29;20087;-83
2021/04/20 10:34:01;;;;;;;10.80;9.50;;;;;;;;;;4935752;29;20507;-82
2021/04/20 10:36:29;;;;;;;10.75;8.73;;;;;;;;;;4948143;29;20039;-83
2021/04/20 10:38:57;;;;;;;9.52;8.52;;;;;;;;;;4956132;29;20042;-83
2021/04/20 10:41:30;;;;;;;9.60;8.38;;;;;;;;;;4954131;28;20130;-83
2021/04/20 10:43:56;;;;;;;12.00;8.85;;;;;;;;;;4993479;28;20050;-82
2021/04/20 10:46:27;;;;;;;9.57;8.57;;;;;;;;;;4985159;28;20035;-82
2021/04/20 10:48:53;;;;;;;;;;;;;;;;;;4985062;28;20066;-83
2021/04/20 10:51:37;;;;;;;23.60;19.42;;;;;;;;;;4969635;28;19921;-83
2021/04/20 10:54:05;;;;;;;11.55;9.90;;;;;;;;;;5005782;28;20056;-83
2021/04/20 10:56:31;;;;;;;10.95;9.40;;;;;;;;;;5075402;28;20025;-83
2021/04/20 10:59:01;;;;;;;12.50;9.90;;;;;;;;;;5079426;28;20037;-83
2021/04/20 11:01:29;;;;;;;12.85;9.63;;;;;;;;;;5053908;28;20028;-82
2021/04/20 11:03:58;;;;;;;14.90;10.00;;;;;;;;;;5056476;28;20029;-83
2021/04/20 11:06:45;;;;;;;13.35;10.40;;;;;;;;;;5057827;28;20092;-83
2021/04/20 11:09:11;;;;;;;11.80;9.02;;;;;;;;;;5047075;28;20064;-83
2021/04/20 11:11:38;;;;;;;10.38;9.25;;;;;;;;;;5057127;28;20554;-83
2021/04/20 11:14:03;;;;;;;11.52;8.65;;;;;;;;;;5030447;28;20026;-82
2021/04/20 11:16:39;;;;;;;10.30;8.65;;;;;;;;;;5050720;28;20051;-84
2021/04/20 11:19:08;;;;;;;10.35;8.82;;;;;;;;;;5056429;28;20032;-83
2021/04/20 11:21:42;;;;;;;11.50;8.20;;;;;;;;;;5047726;28;20103;-83
2021/04/20 11:24:18;;;;;;;9.02;7.80;;;;;;;;;;5049808;28;20041;-84
2021/04/20 11:26:50;;;;;;;10.55;7.85;;;;;;;;;;5052647;28;20061;-84
2021/04/20 11:29:26;;;;;;;8.82;7.82;;;;;;;;;;5044298;28;20079;-84
2021/04/20 11:31:54;;;;;;;10.50;6.93;;;;;;;;;;5051191;28;20029;-83
2021/04/20 11:34:20;;;;;;;9.88;7.63;;;;;;;;;;5052429;28;20495;-84
2021/04/20 11:36:50;;;;;;;8.60;7.22;;;;;;;;;;5049083;28;20029;-83
2021/04/20 11:39:24;;;;;;;8.63;7.75;;;;;;;;;;5046374;28;20089;-83
2021/04/20 11:42:00;;;;;;;9.13;7.63;;;;;;;;;;5046688;28;20041;-84
2021/04/20 11:44:42;;;;;;;8.07;7.22;;;;;;;;;;5038951;28;20366;-83
2021/04/20 11:47:09;;;;;;;8.90;8.00;;;;;;;;;;5057589;28;20092;-83
2021/04/20 11:49:37;;;;;;;11.75;8.07;;;;;;;;;;5024460;28;20033;-83
2021/04/20 11:52:05;;;;;;;8.90;7.28;;;;;;;;;;5044023;28;20025;-81
2021/04/20 11:54:34;;;;;;;9.70;7.78;;;;;;;;;;5028360;28;20032;-84
2021/04/20 11:57:04;;;;;;;8.35;7.35;;;;;;;;;;5058433;28;20028;-83
2021/04/20 11:59:32;;;;;;;7.80;7.00;;;;;;;;;;5054542;28;20032;-83
2021/04/20 12:02:00;;;;;;;9.32;8.13;;;;;;;;;;5056615;28;20880;-83
2021/04/20 12:04:31;;;;;;;9.25;6.85;;;;;;;;;;5029942;28;20033;-84
2021/04/20 12:06:58;;;;;;;9.95;7.82;;;;;;;;;;5053187;28;20477;-83
2021/04/20 12:09:32;;;;;;;9.00;7.78;;;;;;;;;;5057747;28;20398;-83
2021/04/20 12:12:00;;;;;;;7.53;6.80;;;;;;;;;;5050661;28;20025;-83
2021/04/20 12:14:28;;;;;;;7.88;7.05;;;;;;;;;;5047872;28;20021;-83
2021/04/20 12:16:57;;;;;;;10.27;7.10;;;;;;;;;;5052281;28;20037;-83
2021/04/20 12:19:31;;;;;;;9.02;7.07;;;;;;;;;;5045368;28;20063;-83
2021/04/20 12:21:57;;;;;;;9.05;6.68;;;;;;;;;;5039645;28;20034;-84
2021/04/20 12:24:25;;;;;;;8.23;6.50;;;;;;;;;;5056558;28;20087;-84
2021/04/20 12:26:56;;;;;;;7.95;6.18;;;;;;;;;;5034147;28;20029;-84
2021/04/20 12:29:30;;;;;;;;;;;;;;;;;;5058468;28;20029;-83
2021/04/20 12:31:56;;;;;;;6.50;5.22;;;;;;;;;;5044731;28;20346;-83
2021/04/20 12:34:31;;;;;;;7.10;6.40;;;;;;;;;;5056698;28;20060;-84
2021/04/20 12:37:04;;;;;;;6.78;6.07;;;;;;;;;;5054073;28;20032;-83
2021/04/20 12:39:56;;;;;;;10.15;6.50;;;;;;;;;;5063038;28;20013;-84
2021/04/20 12:42:27;;;;;;;10.25;7.10;;;;;;;;;;5060996;28;20064;-83
2021/04/20 12:44:57;;;;;;;6.78;5.93;;;;;;;;;;5059936;28;20029;-82
2021/04/20 12:47:32;;;;;;;7.28;6.30;;;;;;;;;;5042891;28;20028;-83
2021/04/20 12:50:00;;;;;;;8.05;6.85;;;;;;;;;;5033852;28;20052;-83
2021/04/20 12:52:34;;;;;;;9.00;6.20;;;;;;;;;;5035445;28;20032;-83
2021/04/20 12:55:08;;;;;;;7.30;5.22;;;;;;;;;;5055633;28;20202;-83
2021/04/20 12:57:41;;;;;;;6.43;5.22;;;;;;;;;;5049956;28;20524;-83
2021/04/20 13:00:29;;;;;;;7.18;5.90;;;;;;;;;;5056612;28;20052;-82
2021/04/20 13:02:58;;;;;;;9.40;5.57;;;;;;;;;;5040179;28;20025;-82
2021/04/20 13:05:34;;;;;;;8.43;5.60;;;;;;;;;;5057864;28;20012;-83
2021/04/20 13:08:11;;;;;;;6.28;4.63;;;;;;;;;;5060374;28;20482;-83
2021/04/20 13:10:38;;;;;;;7.97;4.25;;;;;;;;;;5062534;28;20076;-83
2021/04/20 13:13:06;;;;;;;7.25;3.90;;;;;;;;;;5058064;28;20374;-83
2021/04/20 13:15:33;;;;;;;6.97;4.90;;;;;;;;;;5060367;28;20082;-83
2021/04/20 13:18:01;;;;;;;5.05;4.32;;;;;;;;;;5061222;28;20025;-84
2021/04/20 13:20:30;;;;;;;4.60;4.10;;;;;;;;;;5064785;28;20032;-84
2021/04/20 13:22:55;;;;;;;4.40;4.00;;;;;;;;;;5059880;28;20025;-83
2021/04/20 13:25:22;;;;;;;4.13;3.60;;;;;;;;;;5044613;28;20035;-83
2021/04/20 13:27:50;;;;;;;3.90;3.10;;;;;;;;;;5066093;28;20044;-84
2021/04/20 13:30:26;;;;;;;4.65;3.05;;;;;;;;;;5065509;28;20028;-82
2021/04/20 13:32:56;;;;;;;5.15;4.03;;;;;;;;;;5062041;28;20033;-82
2021/04/20 13:35:24;;;;;;;5.63;3.17;;;;;;;;;;5059828;28;20036;-83
2021/04/20 13:37:55;;;;;;;5.10;2.67;;;;;;;;;;5058735;28;20396;-84
2021/04/20 13:40:25;;;;;;;3.72;3.30;;;;;;;;;;5041451;28;20025;-84
2021/04/20 13:42:59;;;;;;;4.03;3.35;;;;;;;;;;5054265;28;20114;-84
2021/04/20 13:45:34;;;;;;;50.80;30.92;;;;;;;;;;5037959;28;20429;-83
2021/04/20 13:48:00;;;;;;;19.70;17.85;;;;;;;;;;5038819;28;20032;-83
2021/04/20 13:50:33;;;;;;;4.60;4.20;;;;;;;;;;5039338;28;20026;-83
2021/04/20 13:53:15;;;;;;;3.65;2.95;;;;;;;;;;5037055;28;20030;-83
2021/04/20 13:55:41;;;;;;;4.78;4.28;;;;;;;;;;5038654;28;20104;-83
2021/04/20 13:58:11;;;;;;;4.53;3.65;;;;;;;;;;5039633;28;20108;-83
2021/04/20 14:00:40;;;;;;;4.47;4.07;;;;;;;;;;5050373;28;20043;-82
2021/04/20 14:03:16;;;;;;;4.00;2.20;;;;;;;;;;5064787;28;20431;-83
2021/04/20 14:05:43;;;;;;;2.53;2.30;;;;;;;;;;5059162;28;20495;-83
2021/04/20 14:08:13;;;;;;;3.63;2.90;;;;;;;;;;5059958;28;20041;-84
2021/04/20 14:10:42;;;;;;;7.13;3.92;;;;;;;;;;5057737;28;20025;-82
2021/04/20 14:13:12;;;;;;;5.78;3.50;;;;;;;;;;5057449;28;20036;-84
2021/04/20 14:15:41;;;;;;;6.10;4.00;;;;;;;;;;5063742;28;20104;-83
2021/04/20 14:18:13;;;;;;;5.00;3.42;;;;;;;;;;5076514;28;20401;-84
2021/04/20 14:20:42;;;;;;;3.17;2.92;;;;;;;;;;5067291;28;20029;-84
2021/04/20 14:23:10;;;;;;;2.70;2.50;;;;;;;;;;5059876;28;20025;-84
2021/04/20 14:25:39;;;;;;;4.72;3.35;;;;;;;;;;5042183;28;20068;-84
2021/04/20 14:28:06;;;;;;;8.95;3.53;;;;;;;;;;5058981;28;20027;-83
2021/04/20 14:30:34;;;;;;;6.47;4.80;;;;;;;;;;5057117;28;20021;-83
2021/04/20 14:33:00;;;;;;;3.65;2.85;;;;;;;;;;5040206;28;20029;-84
2021/04/20 14:35:32;;;;;;;3.90;2.58;;;;;;;;;;5057485;28;20025;-83
2021/04/20 14:38:00;;;;;;;5.30;2.90;;;;;;;;;;5056641;28;20086;-83
2021/04/20 14:40:29;;;;;;;3.88;2.53;;;;;;;;;;5041377;28;20040;-83
2021/04/20 14:42:57;;;;;;;3.22;2.20;;;;;;;;;;5029693;28;805580;-83
2021/04/20 14:45:31;;;;;;;2.63;2.20;;;;;;;;;;5058250;28;20083;-83
2021/04/20 14:48:04;;;;;;;2.42;2.15;;;;;;;;;;5057673;28;20029;-82
2021/04/20 14:50:34;;;;;;;2.90;2.17;;;;;;;;;;5038492;28;20028;-82
2021/04/20 14:53:05;;;;;;;2.33;2.10;;;;;;;;;;5049389;28;20028;-81